Time;durP1;ratioP1;P1;durP2;ratioP2;P2;SDS_P1;SDS_P2;PMS_P1;PMS_P2;Temp;Humidity;BMP_temperature;BMP_pressure;BME280_temperature;BME280_humidity;BME280_pressure;Samples;Min_cycle;Max_cycle;Signal;HPM_P1;HPM_P2
2022/08/25 00:00:34;;;;;;;11.07;9.23;;;;;;;23.30;54.13;98170.78;8252935;28;20253;-77
2022/08/25 00:04:40;;;;;;;12.30;9.97;;;;;;;23.29;54.55;98171.78;8254589;28;20246;-77
2022/08/25 00:08:44;;;;;;;12.20;9.57;;;;;;;23.18;54.32;98167.47;8255243;28;20282;-77
2022/08/25 00:12:47;;;;;;;13.77;9.53;;;;;;;23.21;54.51;98155.81;8254027;28;20433;-76
2022/08/25 00:16:50;;;;;;;10.60;9.30;;;;;;;23.12;54.57;98165.44;8254283;28;20544;-76
2022/08/25 00:20:59;;;;;;;11.33;9.20;;;;;;;23.13;54.76;98158.31;8254070;28;20230;-76
2022/08/25 00:25:02;;;;;;;11.73;9.30;;;;;;;23.11;54.60;98161.09;8254208;28;20529;-77
2022/08/25 00:29:05;;;;;;;11.13;9.50;;;;;;;22.98;54.64;98158.75;8254078;28;20556;-76
2022/08/25 00:33:08;;;;;;;10.60;9.57;;;;;;;22.87;54.94;98151.00;8253710;28;20245;-76
2022/08/25 00:37:14;;;;;;;10.17;9.03;;;;;;;22.82;55.50;98155.84;8253519;28;20237;-77
2022/08/25 00:41:21;;;;;;;10.60;9.50;;;;;;;22.92;54.98;98158.47;8254510;28;20244;-77
2022/08/25 00:45:25;;;;;;;11.80;9.47;;;;;;;22.84;55.38;98154.72;8253586;28;20233;-76
2022/08/25 00:49:30;;;;;;;11.73;9.87;;;;;;;22.75;55.43;98165.31;8253483;28;20293;-76
2022/08/25 00:53:35;;;;;;;11.70;9.83;;;;;;;22.63;55.25;98168.09;8253394;28;20249;-77
2022/08/25 00:57:41;;;;;;;11.27;10.07;;;;;;;22.65;55.43;98166.13;8253336;28;20234;-76
2022/08/25 01:01:44;;;;;;;13.23;9.93;;;;;;;22.60;55.46;98164.91;8253028;28;20237;-77
2022/08/25 01:05:51;;;;;;;12.33;9.03;;;;;;;22.58;55.55;98164.19;8250498;28;20526;-77
2022/08/25 01:09:55;;;;;;;11.90;10.30;;;;;;;22.44;56.32;98165.44;8252717;28;20244;-76
2022/08/25 01:14:02;;;;;;;12.77;10.67;;;;;;;22.44;55.95;98154.91;8252504;28;20334;-76
2022/08/25 01:18:05;;;;;;;12.47;10.57;;;;;;;22.45;55.97;98149.47;8252500;28;20240;-76
2022/08/25 01:22:10;;;;;;;12.63;11.40;;;;;;;22.40;56.13;98154.34;8252173;28;20425;-77
2022/08/25 01:26:16;;;;;;;12.40;11.00;;;;;;;22.33;56.57;98140.06;8252342;28;20241;-76
2022/08/25 01:30:20;;;;;;;12.73;11.30;;;;;;;22.27;56.82;98137.13;8252033;28;20245;-76
2022/08/25 01:34:24;;;;;;;15.27;11.50;;;;;;;22.20;56.90;98140.28;8252011;28;20411;-76
2022/08/25 01:38:28;;;;;;;14.27;11.77;;;;;;;22.19;57.13;98138.59;8251806;28;20247;-77
2022/08/25 01:42:42;;;;;;;13.60;11.20;;;;;;;22.26;56.86;98136.28;8251775;28;20244;-76
2022/08/25 01:46:45;;;;;;;16.27;11.40;;;;;;;22.21;57.75;98138.47;8251771;28;20238;-77
2022/08/25 01:50:48;;;;;;;12.90;11.47;;;;;;;22.24;56.83;98146.13;8251181;28;20233;-76
2022/08/25 01:54:52;;;;;;;12.10;10.90;;;;;;;22.12;56.89;98137.47;8251280;28;20242;-75
2022/08/25 01:58:55;;;;;;;13.27;10.63;;;;;;;22.07;57.10;98142.34;8251271;28;20245;-76
2022/08/25 02:02:59;;;;;;;13.77;10.70;;;;;;;22.07;57.28;98144.97;8251111;28;20241;-77
2022/08/25 02:07:04;;;;;;;12.37;11.07;;;;;;;21.99;57.38;98145.66;8251120;28;20466;-76
2022/08/25 02:11:11;;;;;;;12.40;10.43;;;;;;;21.98;57.52;98143.97;8251090;28;20544;-77
2022/08/25 02:15:14;;;;;;;12.13;10.67;;;;;;;22.00;57.74;98138.56;8251003;28;20420;-76
2022/08/25 02:19:18;;;;;;;15.37;11.17;;;;;;;21.89;58.04;98138.69;8250535;28;20424;-77
2022/08/25 02:23:21;;;;;;;12.80;11.23;;;;;;;21.92;57.80;98131.34;8250059;28;20241;-76
2022/08/25 02:27:25;;;;;;;12.10;10.87;;;;;;;21.85;57.89;98131.03;8250567;28;20237;-77
2022/08/25 02:31:28;;;;;;;12.40;10.90;;;;;;;21.70;57.89;98121.84;8250453;28;20230;-77
2022/08/25 02:35:31;;;;;;;11.77;10.57;;;;;;;21.74;58.31;98120.63;8250125;28;20555;-76
2022/08/25 02:39:35;;;;;;;13.97;10.87;;;;;;;21.66;58.49;98123.09;8250205;28;20232;-76
2022/08/25 02:43:42;;;;;;;11.83;10.50;;;;;;;21.80;58.05;98113.97;8250366;28;20237;-76
2022/08/25 02:47:45;;;;;;;13.20;10.83;;;;;;;21.77;58.46;98114.25;8250271;28;20234;-76
2022/08/25 02:51:48;;;;;;;14.80;11.33;;;;;;;21.72;58.40;98106.72;8249780;28;20402;-76
2022/08/25 02:55:51;;;;;;;13.40;11.40;;;;;;;21.73;57.70;98112.84;8250027;28;20234;-76
2022/08/25 02:59:56;;;;;;;12.67;10.83;;;;;;;21.77;57.30;98109.81;8250142;28;20230;-76
2022/08/25 03:04:00;;;;;;;12.30;11.10;;;;;;;21.63;58.08;98118.94;8249977;28;20238;-77
2022/08/25 03:08:04;;;;;;;12.90;11.70;;;;;;;21.52;58.01;98115.56;8249938;28;20241;-76
2022/08/25 03:12:08;;;;;;;11.90;10.70;;;;;;;21.51;57.84;98112.09;8249918;28;20249;-77
2022/08/25 03:16:12;;;;;;;12.20;10.90;;;;;;;21.55;57.14;98108.25;8249623;28;20242;-76
2022/08/25 03:20:15;;;;;;;14.53;11.13;;;;;;;21.42;57.70;98111.06;8249474;28;20240;-77
2022/08/25 03:24:18;;;;;;;12.93;11.67;;;;;;;21.39;57.78;98103.41;8249578;28;20242;-76
2022/08/25 03:28:21;;;;;;;14.37;10.63;;;;;;;21.36;57.58;98101.06;8249173;28;20233;-76
2022/08/25 03:32:32;;;;;;;13.83;11.10;;;;;;;21.34;57.73;98108.25;8249116;28;20236;-77
2022/08/25 03:36:35;;;;;;;13.70;11.43;;;;;;;21.28;58.35;98108.78;8255088;28;20429;-76
2022/08/25 03:40:38;;;;;;;12.30;10.93;;;;;;;21.23;58.22;98111.00;8255377;28;20237;-76
2022/08/25 03:44:41;;;;;;;13.00;11.33;;;;;;;21.23;58.09;98111.00;8255436;28;20245;-77
2022/08/25 03:48:45;;;;;;;14.27;11.57;;;;;;;21.32;57.99;98101.44;8254899;28;20244;-76
2022/08/25 03:52:52;;;;;;;13.63;12.17;;;;;;;21.20;58.24;98106.81;8254380;28;20551;-76
2022/08/25 03:56:55;;;;;;;13.80;12.37;;;;;;;21.20;58.46;98101.53;8254639;28;20230;-76
2022/08/25 04:00:59;;;;;;;15.07;12.57;;;;;;;21.24;58.72;98102.09;8254784;28;20238;-77
2022/08/25 04:05:03;;;;;;;15.10;13.43;;;;;;;21.14;59.08;98096.81;8253730;28;20527;-76
2022/08/25 04:09:07;;;;;;;15.07;13.33;;;;;;;21.18;59.13;98092.94;8254433;28;20238;-76
2022/08/25 04:13:11;;;;;;;14.83;12.53;;;;;;;21.17;58.97;98098.31;8254233;28;20532;-76
2022/08/25 04:17:14;;;;;;;15.10;12.10;;;;;;;21.17;59.10;98095.69;8254190;28;20281;-76
2022/08/25 04:21:19;;;;;;;16.13;12.87;;;;;;;21.13;58.68;98089.03;8253868;28;20234;-77
2022/08/25 04:25:21;;;;;;;13.97;12.43;;;;;;;21.09;58.65;98085.81;8253809;28;20348;-76
2022/08/25 04:29:25;;;;;;;13.73;11.80;;;;;;;21.11;58.03;98094.41;8253781;28;20234;-77
2022/08/25 04:33:28;;;;;;;12.60;11.30;;;;;;;21.03;57.97;98086.34;8252834;28;20234;-76
2022/08/25 04:37:32;;;;;;;15.30;11.67;;;;;;;21.07;57.47;98085.94;8253519;28;20241;-77
2022/08/25 04:41:36;;;;;;;13.67;12.10;;;;;;;21.05;57.82;98094.94;8253344;28;20230;-76
2022/08/25 04:45:39;;;;;;;13.77;12.10;;;;;;;21.01;58.25;98104.06;8252888;28;20243;-77
2022/08/25 04:49:42;;;;;;;15.20;12.10;;;;;;;21.05;58.50;98108.94;8253287;28;20249;-78
2022/08/25 04:53:47;;;;;;;12.93;11.53;;;;;;;21.00;58.22;98105.88;8253148;28;20238;-77
2022/08/25 04:57:50;;;;;;;13.80;12.20;;;;;;;20.93;58.56;98112.63;8252356;28;20260;-77
2022/08/25 05:01:53;;;;;;;16.47;11.97;;;;;;;21.05;58.56;98108.13;8252950;28;20230;-76
2022/08/25 05:05:56;;;;;;;13.90;12.40;;;;;;;21.03;58.54;98112.69;8252801;28;20245;-76
2022/08/25 05:10:00;;;;;;;14.63;11.63;;;;;;;21.00;58.46;98100.63;8252850;28;20257;-76
2022/08/25 05:14:10;;;;;;;16.77;12.30;;;;;;;20.99;58.63;98100.75;8252433;28;20248;-76
2022/08/25 05:18:12;;;;;;;19.07;12.53;;;;;;;21.00;58.57;98092.72;8250811;28;20230;-76
2022/08/25 05:22:16;;;;;;;16.07;12.17;;;;;;;21.05;58.86;98089.69;8252042;28;20535;-78
2022/08/25 05:26:25;;;;;;;16.53;12.77;;;;;;;21.08;58.34;98095.53;8251221;28;20234;-77
2022/08/25 05:30:29;;;;;;;14.27;12.87;;;;;;;21.08;58.82;98092.06;8252297;28;20236;-76
2022/08/25 05:34:32;;;;;;;14.93;13.30;;;;;;;21.13;58.80;98091.66;8251794;28;20248;-77
2022/08/25 05:38:35;;;;;;;14.40;12.90;;;;;;;21.16;58.63;98097.50;8251590;28;20238;-77
2022/08/25 05:42:39;;;;;;;13.73;12.07;;;;;;;21.23;58.26;98088.13;8249849;28;20425;-77
2022/08/25 05:46:42;;;;;;;17.23;12.90;;;;;;;21.25;58.35;98088.00;8251620;28;20234;-77
2022/08/25 05:50:51;;;;;;;18.97;13.33;;;;;;;21.25;58.82;98096.72;8251570;28;20244;-77
2022/08/25 05:54:54;;;;;;;16.83;14.20;;;;;;;21.25;59.58;98091.44;8250624;28;20535;-76
2022/08/25 05:58:58;;;;;;;20.23;14.63;;;;;;;21.43;58.95;98094.28;8250533;28;20391;-77
2022/08/25 06:03:01;;;;;;;16.20;13.87;;;;;;;21.57;59.21;98092.28;8251151;28;20238;-77
2022/08/25 06:07:04;;;;;;;17.83;15.30;;;;;;;21.74;59.46;98081.09;8251214;28;20248;-77
2022/08/25 06:11:07;;;;;;;20.70;16.07;;;;;;;22.30;58.76;98078.81;8250973;28;20297;-77
2022/08/25 06:15:12;;;;;;;19.93;16.27;;;;;;;22.56;58.12;98074.63;8250908;28;20540;-77
2022/08/25 06:19:15;;;;;;;18.67;16.33;;;;;;;22.59;58.73;98084.88;8250694;28;20230;-77
2022/08/25 06:23:18;;;;;;;20.33;16.80;;;;;;;22.71;58.89;98084.72;8250250;28;20231;-77
2022/08/25 06:27:21;;;;;;;18.27;16.10;;;;;;;22.67;59.17;98084.19;8250521;28;20234;-77
2022/08/25 06:31:25;;;;;;;17.87;16.00;;;;;;;22.72;59.13;98087.22;8250451;28;20238;-77
2022/08/25 06:35:28;;;;;;;19.17;17.10;;;;;;;22.67;59.72;98084.19;8250076;28;20520;-77
2022/08/25 06:39:31;;;;;;;18.30;16.40;;;;;;;22.68;59.45;98079.75;8250184;28;20234;-77
2022/08/25 06:43:34;;;;;;;18.87;16.23;;;;;;;22.76;59.76;98083.31;8250360;28;20230;-78
2022/08/25 06:47:38;;;;;;;19.23;15.70;;;;;;;22.72;58.79;98079.31;8249958;28;20233;-79
2022/08/25 06:51:41;;;;;;;18.87;15.00;;;;;;;22.83;58.64;98080.97;8249897;28;20237;-79
2022/08/25 06:55:44;;;;;;;18.77;16.87;;;;;;;23.00;58.68;98067.00;8250124;28;20544;-78
2022/08/25 06:59:48;;;;;;;18.50;16.03;;;;;;;23.29;58.38;98065.28;8249933;28;20233;-79
2022/08/25 07:03:58;;;;;;;18.17;16.00;;;;;;;23.59;58.66;98066.78;8249371;28;20280;-79
2022/08/25 07:08:01;;;;;;;17.97;15.53;;;;;;;23.96;57.77;98065.88;8251787;28;20238;-79
2022/08/25 07:12:04;;;;;;;18.97;14.97;;;;;;;24.03;57.86;98069.59;8256296;28;20234;-79
2022/08/25 07:16:07;;;;;;;19.60;16.70;;;;;;;23.74;58.29;98069.75;8255813;28;20246;-80
2022/08/25 07:20:12;;;;;;;18.00;16.07;;;;;;;24.22;57.75;98065.09;8255823;28;20234;-79
2022/08/25 07:24:16;;;;;;;24.73;17.37;;;;;;;23.87;57.77;98064.13;8255870;28;20239;-79
2022/08/25 07:28:19;;;;;;;18.80;15.00;;;;;;;24.16;57.68;98070.03;8255614;28;20471;-78
2022/08/25 07:32:21;;;;;;;19.37;14.47;;;;;;;24.76;55.84;98056.13;8255101;28;20238;-78
2022/08/25 07:36:26;;;;;;;23.07;15.07;;;;;;;25.18;55.00;98054.53;8255560;28;20246;-78
2022/08/25 07:40:31;;;;;;;17.10;13.63;;;;;;;25.52;54.32;98056.34;8255537;28;20234;-79
2022/08/25 07:44:34;;;;;;;20.07;15.17;;;;;;;25.27;53.72;98061.56;8255268;28;20302;-79
2022/08/25 07:48:38;;;;;;;16.37;12.37;;;;;;;25.46;53.90;98067.63;8254602;28;20235;-79
2022/08/25 07:52:42;;;;;;;20.00;13.13;;;;;;;25.92;52.42;98060.13;8254988;28;20237;-80
2022/08/25 07:56:53;;;;;;;15.30;12.97;;;;;;;26.56;50.96;98057.69;8254285;28;20251;-80
2022/08/25 08:00:56;;;;;;;15.93;13.50;;;;;;;26.59;50.55;98067.13;8254202;28;20234;-78
2022/08/25 08:04:59;;;;;;;14.50;12.17;;;;;;;27.10;50.10;98055.25;8254337;28;20430;-79
2022/08/25 08:09:04;;;;;;;16.33;12.97;;;;;;;27.08;49.69;98073.22;8254473;28;20243;-79
2022/08/25 08:13:08;;;;;;;18.40;11.97;;;;;;;27.49;49.18;98064.28;8254397;28;20249;-79
2022/08/25 08:17:12;;;;;;;14.50;10.83;;;;;;;27.76;47.57;98062.13;8254517;28;20459;-79
2022/08/25 08:21:17;;;;;;;15.10;12.43;;;;;;;27.61;46.49;98060.25;8253500;28;20256;-79
2022/08/25 08:25:23;;;;;;;16.13;12.30;;;;;;;27.43;47.22;98051.69;8253970;28;20237;-79
2022/08/25 08:29:29;;;;;;;13.67;10.27;;;;;;;28.05;46.95;98056.19;8253796;28;20237;-80
2022/08/25 08:33:33;;;;;;;12.03;10.20;;;;;;;28.29;45.41;98063.13;8253846;28;20234;-80
2022/08/25 08:37:42;;;;;;;12.70;9.43;;;;;;;28.57;44.48;98043.97;8253653;28;20308;-80
2022/08/25 08:42:18;;;;;;;13.47;9.60;;;;;;;28.62;43.86;98044.25;8253800;28;20240;-84
2022/08/25 08:46:22;;;;;;;10.00;8.53;;;;;;;28.40;42.85;98040.59;8253541;28;20293;-83
2022/08/25 08:50:32;;;;;;;13.80;9.40;;;;;;;28.58;44.12;98027.81;8253033;28;20236;-83
2022/08/25 08:54:37;;;;;;;13.30;9.37;;;;;;;28.71;43.16;98021.00;8253262;28;20430;-81
2022/08/25 08:58:47;;;;;;;9.00;8.03;;;;;;;29.26;43.35;98024.25;8253054;28;20245;-82
2022/08/25 09:02:56;;;;;;;11.93;8.57;;;;;;;29.90;43.42;98037.75;8252544;28;20237;-80
2022/08/25 09:07:01;;;;;;;14.27;8.97;;;;;;;30.46;40.88;98049.56;8252807;28;20300;-80
2022/08/25 09:11:15;;;;;;;13.57;8.63;;;;;;;30.64;40.95;98041.09;8252743;28;20248;-80
2022/08/25 09:16:53;;;;;;;11.00;8.50;;;;;;;30.60;39.14;98035.31;8251878;28;20332;-80
2022/08/25 09:20:11;;;;;;;10.60;8.00;;;;;;;30.75;40.78;98037.88;8252150;28;20230;-80
2022/08/25 09:24:30;;;;;;;8.23;6.97;;;;;;;31.31;39.10;98034.28;8252430;28;20244;-80
2022/08/25 09:28:38;;;;;;;7.63;6.93;;;;;;;30.82;37.31;98030.69;8252509;28;20244;-80
2022/08/25 09:32:45;;;;;;;10.57;7.77;;;;;;;30.33;40.78;98035.09;8252975;28;20252;-88
2022/08/25 09:36:54;;;;;;;9.07;7.50;;;;;;;30.96;39.23;98029.81;8251467;28;20546;-79
2022/08/25 09:41:00;;;;;;;10.30;6.80;;;;;;;30.70;38.92;98025.09;8251838;28;20342;-80
2022/08/25 09:45:03;;;;;;;9.97;6.77;;;;;;;31.33;37.00;98013.53;8251728;28;20237;-78
2022/08/25 09:49:15;;;;;;;8.63;6.80;;;;;;;31.07;36.46;98003.53;8251571;28;20234;-78
2022/08/25 09:53:19;;;;;;;8.00;6.37;;;;;;;31.25;35.91;98003.00;8251701;28;20542;-78
2022/08/25 09:57:32;;;;;;;8.03;6.07;;;;;;;31.12;36.97;98004.56;8251340;28;20246;-78
2022/08/25 10:01:47;;;;;;;11.27;6.90;;;;;;;30.46;39.79;97996.13;8251108;28;20238;-78
2022/08/25 10:06:02;;;;;;;9.33;6.77;;;;;;;29.62;39.49;97989.59;8250367;28;20238;-78
2022/08/25 10:10:17;;;;;;;9.37;6.43;;;;;;;30.85;37.46;97974.19;8250818;28;20234;-78
2022/08/25 10:14:28;;;;;;;16.03;6.37;;;;;;;30.86;38.08;97967.81;8251221;28;20290;-79
2022/08/25 10:18:31;;;;;;;7.57;6.50;;;;;;;30.22;38.47;97968.81;8250518;28;20265;-78
2022/08/25 10:22:35;;;;;;;8.47;6.77;;;;;;;30.33;37.98;97968.31;8250431;28;20520;-82
2022/08/25 10:26:48;;;;;;;8.83;6.70;;;;;;;30.44;37.31;97960.78;8250818;28;20312;-79
2022/08/25 10:30:57;;;;;;;8.70;6.37;;;;;;;30.99;37.13;97954.53;8249876;28;20530;-79
2022/08/25 10:35:07;;;;;;;8.97;6.60;;;;;;;31.10;38.08;97946.97;8250175;28;20247;-80
2022/08/25 10:39:24;;;;;;;10.33;6.73;;;;;;;31.43;37.47;97936.38;8250327;28;20266;-79
2022/08/25 10:43:44;;;;;;;12.60;6.97;;;;;;;31.14;36.61;97927.66;8250141;28;20267;-80
2022/08/25 10:48:08;;;;;;;9.57;7.37;;;;;;;30.95;36.79;97926.53;8250088;28;20544;-80
2022/08/25 10:52:17;;;;;;;8.23;6.93;;;;;;;30.36;37.22;97924.34;8249954;28;20412;-81
2022/08/25 10:56:24;;;;;;;10.50;6.60;;;;;;;30.60;36.56;97923.06;8250123;28;20434;-79
2022/08/25 11:00:32;;;;;;;8.30;6.60;;;;;;;31.02;37.19;97920.41;8250075;28;20233;-78
2022/08/25 11:04:38;;;;;;;11.67;6.67;;;;;;;30.87;36.25;97909.84;8251018;28;20234;-79
2022/08/25 11:08:48;;;;;;;7.43;5.83;;;;;;;31.51;36.35;97908.63;8250782;28;20239;-80
2022/08/25 11:12:55;;;;;;;9.73;6.83;;;;;;;30.11;37.79;97907.94;8249379;28;20243;-76
2022/08/25 11:17:02;;;;;;;8.30;6.83;;;;;;;31.56;35.67;97909.66;8249829;28;20238;-76
2022/08/25 11:21:08;;;;;;;9.80;7.17;;;;;;;31.71;35.59;97909.47;8250169;28;20242;-78
2022/08/25 11:25:15;;;;;;;7.50;6.77;;;;;;;30.89;38.32;97905.13;8250196;28;20238;-76
2022/08/25 11:29:27;;;;;;;10.77;7.13;;;;;;;30.99;36.83;97903.72;8251779;28;20241;-79
2022/08/25 11:33:32;;;;;;;9.27;7.33;;;;;;;30.27;38.14;97896.94;8251047;28;20248;-80
2022/08/25 11:37:39;;;;;;;9.03;7.43;;;;;;;29.96;38.82;97894.66;8251953;28;20458;-80
2022/08/25 11:41:53;;;;;;;13.20;8.10;;;;;;;29.70;38.98;97896.09;8251918;28;20241;-80
2022/08/25 11:46:07;;;;;;;9.83;7.93;;;;;;;29.44;39.45;97892.13;8251805;28;20417;-80
2022/08/25 11:50:26;;;;;;;8.87;7.50;;;;;;;30.32;39.32;97881.19;8251905;28;20235;-79
2022/08/25 11:54:37;;;;;;;14.90;7.87;;;;;;;29.08;40.36;97886.00;8253383;28;20232;-78
2022/08/25 11:58:47;;;;;;;7.73;7.03;;;;;;;29.10;40.41;97889.28;8256988;28;20236;-78
2022/08/25 12:02:53;;;;;;;9.93;7.33;;;;;;;29.19;40.56;97889.03;8254461;28;20246;-80
2022/08/25 12:07:22;;;;;;;10.37;7.30;;;;;;;28.94;40.91;97887.66;8254714;28;20241;-78
2022/08/25 12:11:47;;;;;;;9.90;7.53;;;;;;;28.70;40.88;97894.16;8254825;28;20417;-77
2022/08/25 12:15:59;;;;;;;8.50;7.43;;;;;;;28.64;40.87;97888.53;8249793;28;20517;-79
2022/08/25 12:20:04;;;;;;;8.23;7.43;;;;;;;28.22;41.76;97887.31;8256360;28;20235;-80
2022/08/25 12:24:13;;;;;;;10.77;7.43;;;;;;;28.31;40.93;97889.88;8254298;28;20246;-78
2022/08/25 12:28:41;;;;;;;9.13;7.07;;;;;;;28.44;40.59;97887.41;8254162;28;20232;-79
2022/08/25 12:33:05;;;;;;;8.83;6.90;;;;;;;28.46;40.44;97882.72;8253894;28;20241;-77
2022/08/25 12:37:14;;;;;;;8.87;7.43;;;;;;;28.22;40.81;97882.00;8253542;28;20515;-80
2022/08/25 12:41:20;;;;;;;8.73;7.30;;;;;;;28.06;40.26;97880.34;8253928;28;20243;-80
2022/08/25 12:45:42;;;;;;;9.97;6.40;;;;;;;28.49;39.86;97889.53;8253950;28;20231;-77
2022/08/25 12:49:45;;;;;;;10.83;7.50;;;;;;;28.65;39.59;97894.69;8253987;28;20293;-78
2022/08/25 12:53:54;;;;;;;10.77;6.83;;;;;;;28.76;39.39;97883.56;8252880;28;20243;-77
2022/08/25 12:57:59;;;;;;;8.80;6.60;;;;;;;29.03;39.00;97870.53;8252936;28;20355;-76
2022/08/25 13:02:38;;;;;;;8.90;6.27;;;;;;;28.74;39.18;97866.94;8252869;28;20230;-77
2022/08/25 13:07:10;;;;;;;8.30;6.53;;;;;;;29.12;38.72;97880.09;8252229;28;20235;-76
2022/08/25 13:11:18;;;;;;;7.70;6.33;;;;;;;29.43;38.02;97869.16;8253151;28;20426;-81
2022/08/25 13:15:33;;;;;;;8.10;6.40;;;;;;;29.73;37.13;97860.22;8252609;28;20314;-79
2022/08/25 13:19:38;;;;;;;11.20;6.43;;;;;;;30.31;36.17;97852.81;8251910;28;20419;-81
2022/08/25 13:23:42;;;;;;;7.87;6.27;;;;;;;30.63;35.14;97852.38;8251705;28;20239;-78
2022/08/25 13:27:51;;;;;;;14.23;6.23;;;;;;;30.87;35.03;97846.50;8251961;28;20238;-81
2022/08/25 13:31:56;;;;;;;8.40;6.60;;;;;;;31.07;33.78;97835.06;8251173;28;20232;-83
2022/08/25 13:40:25;;;;;;;8.33;5.87;;;;;;;31.86;32.90;97822.78;8251978;28;20237;-80
2022/08/25 13:44:32;;;;;;;8.10;5.47;;;;;;;32.42;33.18;97818.75;8251504;28;20238;-83
2022/08/25 13:48:38;;;;;;;8.07;5.67;;;;;;;32.59;32.86;97816.47;8251481;28;20245;-79
2022/08/25 13:52:40;;;;;;;9.93;6.00;;;;;;;31.49;34.20;97814.34;8251278;28;20544;-78
2022/08/25 13:56:44;;;;;;;8.47;5.47;;;;;;;30.71;35.71;97826.31;8250876;28;20310;-79
2022/08/25 14:01:01;;;;;;;11.53;6.23;;;;;;;30.10;37.26;97808.31;8250646;28;20426;-78
2022/08/25 14:05:34;;;;;;;8.20;6.53;;;;;;;29.64;37.76;97808.78;8251026;28;20234;-79
2022/08/25 14:09:40;;;;;;;8.60;6.37;;;;;;;29.79;37.52;97806.06;8250749;28;20427;-79
2022/08/25 14:13:44;;;;;;;8.27;6.00;;;;;;;31.19;36.54;97809.38;8250826;28;20236;-79
2022/08/25 14:18:00;;;;;;;7.77;6.33;;;;;;;30.76;35.18;97796.28;8249518;28;20235;-77
2022/08/25 14:22:03;;;;;;;11.70;5.93;;;;;;;30.93;34.61;97804.81;8250337;28;20240;-79
2022/08/25 14:26:06;;;;;;;11.37;6.17;;;;;;;30.79;35.02;97798.56;8250584;28;20234;-78
2022/08/25 14:30:11;;;;;;;11.80;5.80;;;;;;;31.14;33.44;97798.47;8250582;28;20239;-79
2022/08/25 14:34:18;;;;;;;9.63;5.97;;;;;;;31.58;33.31;97781.00;8249978;28;20248;-79
2022/08/25 14:38:22;;;;;;;10.33;6.07;;;;;;;31.66;32.84;97791.53;8250168;28;20238;-79
2022/08/25 14:42:25;;;;;;;11.13;6.50;;;;;;;31.05;34.31;97797.00;8250284;28;20577;-79
2022/08/25 14:46:30;;;;;;;10.67;6.13;;;;;;;30.87;34.57;97790.38;8250123;28;20235;-79
2022/08/25 14:50:35;;;;;;;11.37;5.83;;;;;;;30.57;35.40;97784.50;8250040;28;20241;-79
2022/08/25 14:54:38;;;;;;;12.43;6.67;;;;;;;30.96;34.64;97775.81;8249725;28;20239;-79
2022/08/25 14:58:43;;;;;;;7.67;6.00;;;;;;;31.12;34.58;97768.44;8249725;28;20420;-79
2022/08/25 15:02:53;;;;;;;8.50;6.20;;;;;;;31.03;33.52;97758.94;8249273;28;20409;-79
2022/08/25 15:06:59;;;;;;;7.77;5.93;;;;;;;31.22;34.22;97749.28;8249438;28;20238;-79
2022/08/25 15:11:04;;;;;;;6.37;5.73;;;;;;;31.21;33.82;97747.66;8249665;28;20263;-80
2022/08/25 15:15:10;;;;;;;11.40;5.57;;;;;;;31.18;33.33;97759.59;8249572;28;20250;-79
2022/08/25 15:19:16;;;;;;;9.80;5.37;;;;;;;31.21;33.85;97747.66;8249253;28;20237;-79
2022/08/25 15:23:20;;;;;;;7.13;5.03;;;;;;;31.73;34.16;97752.16;8249346;28;20241;-80
2022/08/25 15:27:23;;;;;;;8.47;5.60;;;;;;;31.54;32.84;97753.03;8249575;28;20298;-79
2022/08/25 15:31:32;;;;;;;8.43;5.30;;;;;;;31.72;32.60;97747.84;8255157;28;20444;-79
2022/08/25 15:35:35;;;;;;;9.23;5.40;;;;;;;31.46;32.29;97745.19;8255500;28;20246;-79
2022/08/25 15:39:40;;;;;;;10.50;5.43;;;;;;;30.84;33.80;97756.00;8255551;28;20238;-79
2022/08/25 15:43:46;;;;;;;6.70;4.60;;;;;;;30.59;33.72;97748.53;8255110;28;20235;-79
2022/08/25 15:47:53;;;;;;;10.47;5.23;;;;;;;30.55;32.75;97741.16;8254463;28;20239;-79
2022/08/25 15:51:56;;;;;;;10.27;5.00;;;;;;;30.45;33.55;97746.06;8254889;28;20238;-79
2022/08/25 15:56:01;;;;;;;10.03;5.73;;;;;;;30.34;33.25;97734.91;8254612;28;20240;-79
2022/08/25 16:00:11;;;;;;;10.10;5.30;;;;;;;30.06;33.83;97728.81;8255060;28;20237;-79
2022/08/25 16:04:15;;;;;;;11.90;5.13;;;;;;;29.96;33.72;97721.97;8254592;28;20471;-79
2022/08/25 16:08:19;;;;;;;9.13;4.80;;;;;;;29.76;34.37;97735.22;8254646;28;20289;-80
2022/08/25 16:12:24;;;;;;;7.73;5.03;;;;;;;29.70;34.47;97730.66;8254551;28;20239;-79
2022/08/25 16:16:31;;;;;;;13.70;5.67;;;;;;;29.65;35.09;97727.72;8254486;28;20264;-79
2022/08/25 16:20:35;;;;;;;6.67;5.00;;;;;;;29.65;36.28;97727.72;8254140;28;20437;-78
2022/08/25 16:24:39;;;;;;;8.37;5.10;;;;;;;29.46;36.43;97731.91;8254270;28;20545;-78
2022/08/25 16:28:45;;;;;;;10.73;5.90;;;;;;;29.32;37.01;97728.34;8254361;28;20297;-79
2022/08/25 16:32:48;;;;;;;8.67;5.53;;;;;;;29.28;37.72;97724.38;8253499;28;20244;-78
2022/08/25 16:36:51;;;;;;;9.87;5.40;;;;;;;29.07;37.27;97727.06;8253751;28;20226;-79
2022/08/25 16:40:54;;;;;;;9.17;5.87;;;;;;;28.91;37.53;97720.97;8253291;28;20343;-79
2022/08/25 16:44:58;;;;;;;10.30;5.23;;;;;;;28.98;37.79;97713.06;8253662;28;20521;-80
2022/08/25 16:49:01;;;;;;;8.53;5.50;;;;;;;29.00;37.71;97714.50;8253538;28;20436;-79
2022/08/25 16:57:25;;;;;;;8.93;5.20;;;;;;;28.85;37.88;97711.09;8215026;28;20368;-77
2022/08/25 17:01:32;;;;;;;9.47;5.93;;;;;;;28.61;37.84;97709.59;8252792;28;20249;-77
2022/08/25 17:05:41;;;;;;;10.07;5.87;;;;;;;28.77;37.50;97709.38;8253012;28;20416;-79
2022/08/25 17:09:44;;;;;;;7.63;5.20;;;;;;;28.62;37.52;97711.28;8252665;28;20236;-79
2022/08/25 17:13:51;;;;;;;6.80;4.80;;;;;;;28.79;37.60;97710.00;8252249;28;20225;-78
2022/08/25 17:17:56;;;;;;;13.13;5.73;;;;;;;28.68;37.34;97713.16;8252209;28;20238;-79
2022/08/25 17:21:58;;;;;;;9.57;5.27;;;;;;;28.59;37.56;97703.66;8252547;28;20234;-80
2022/08/25 17:26:02;;;;;;;9.77;5.97;;;;;;;28.50;37.18;97708.22;8252228;28;20233;-80
2022/08/25 17:30:08;;;;;;;7.20;5.07;;;;;;;28.59;37.01;97698.31;8251998;28;20236;-80
2022/08/25 17:34:14;;;;;;;7.47;4.83;;;;;;;28.50;36.78;97699.41;8251838;28;20555;-80
2022/08/25 17:38:22;;;;;;;11.03;5.50;;;;;;;28.38;36.64;97689.25;8251785;28;20498;-80
2022/08/25 17:42:25;;;;;;;6.07;4.87;;;;;;;28.46;36.60;97698.97;8251807;28;20303;-78
2022/08/25 17:46:32;;;;;;;9.00;5.00;;;;;;;28.42;37.02;97698.50;8251475;28;20237;-78
2022/08/25 17:50:37;;;;;;;8.60;4.80;;;;;;;28.39;37.00;97700.75;8251381;28;20245;-80
2022/08/25 17:54:40;;;;;;;7.83;4.93;;;;;;;28.34;36.90;97697.81;8250567;28;20555;-80
2022/08/25 17:58:44;;;;;;;7.13;4.70;;;;;;;28.33;37.03;97696.16;8251291;28;20244;-79
2022/08/25 18:02:47;;;;;;;9.30;4.97;;;;;;;28.23;37.35;97693.78;8251007;28;20234;-80
2022/08/25 18:06:51;;;;;;;9.33;4.97;;;;;;;28.23;37.24;97697.28;8250598;28;20538;-80
2022/08/25 18:10:54;;;;;;;8.03;4.80;;;;;;;28.18;38.83;97705.03;8250883;28;20234;-80
2022/08/25 18:14:57;;;;;;;9.83;5.23;;;;;;;28.08;39.29;97702.66;8250776;28;20243;-80
2022/08/25 18:19:00;;;;;;;8.70;5.30;;;;;;;28.03;39.81;97704.22;8250617;28;20245;-79
2022/08/25 18:23:05;;;;;;;9.00;5.10;;;;;;;28.00;39.97;97708.06;8250703;28;20239;-79
2022/08/25 18:27:12;;;;;;;7.70;5.17;;;;;;;27.86;41.03;97712.34;8250260;28;20232;-79
2022/08/25 18:31:15;;;;;;;10.03;5.73;;;;;;;27.83;41.07;97712.72;8250491;28;20241;-79
2022/08/25 18:35:21;;;;;;;9.17;5.57;;;;;;;27.75;41.74;97714.66;8250302;28;20237;-80
2022/08/25 18:43:51;;;;;;;13.57;5.70;;;;;;;27.65;41.71;97720.25;8249733;28;20248;-79
2022/08/25 18:47:56;;;;;;;11.00;5.57;;;;;;;27.58;41.52;97719.31;8250104;28;20237;-79
2022/08/25 18:51:59;;;;;;;10.33;6.00;;;;;;;27.50;41.99;97717.56;8250228;28;20238;-79
2022/08/25 18:56:04;;;;;;;12.50;6.00;;;;;;;27.43;42.34;97725.44;8250113;28;20245;-79
2022/08/25 19:00:08;;;;;;;13.57;6.00;;;;;;;27.35;43.30;97722.88;8249960;28;20259;-79
2022/08/25 19:04:13;;;;;;;7.77;6.17;;;;;;;27.31;45.12;97724.25;8252085;28;20262;-79
2022/08/25 19:08:17;;;;;;;11.17;6.10;;;;;;;27.17;44.61;97722.31;8256526;28;20241;-80
2022/08/25 19:12:24;;;;;;;10.10;6.13;;;;;;;27.13;45.10;97721.88;8256382;28;20247;-80
2022/08/25 19:16:34;;;;;;;10.43;6.53;;;;;;;27.00;44.48;97725.16;8256198;28;20236;-79